Time;durP1;ratioP1;P1;durP2;ratioP2;P2;SDS_P1;SDS_P2;PMS_P1;PMS_P2;Temp;Humidity;BMP_temperature;BMP_pressure;BME280_temperature;BME280_humidity;BME280_pressure;Samples;Min_cycle;Max_cycle;Signal;HPM_P1;HPM_P2
2023/09/28 00:00:51;;;;;;;9.38;7.97;;;18.70;99.90;;;;;;5038185;28;20044;-78
2023/09/28 00:03:17;;;;;;;8.82;7.88;;;18.60;99.90;;;;;;5040227;28;20038;-78
2023/09/28 00:05:43;;;;;;;10.13;8.15;;;18.60;99.90;;;;;;5027678;28;20119;-78
2023/09/28 00:08:08;;;;;;;10.88;7.68;;;18.50;99.90;;;;;;5037953;28;20041;-78
2023/09/28 00:10:34;;;;;;;9.32;8.18;;;18.50;99.90;;;;;;5038754;28;20072;-78
2023/09/28 00:13:00;;;;;;;9.93;7.85;;;18.50;99.90;;;;;;5045743;28;20041;-78
2023/09/28 00:15:26;;;;;;;10.60;7.85;;;18.50;99.90;;;;;;5023452;28;20572;-78
2023/09/28 00:17:52;;;;;;;9.50;8.35;;;18.40;99.90;;;;;;5042316;28;20040;-78
2023/09/28 00:20:18;;;;;;;10.23;8.25;;;18.40;99.90;;;;;;5027285;28;20034;-78
2023/09/28 00:22:50;;;;;;;8.70;7.43;;;18.40;99.90;;;;;;5046716;28;20045;-79
2023/09/28 00:25:17;;;;;;;8.85;7.70;;;18.40;99.90;;;;;;5045861;28;20596;-78
2023/09/28 00:27:44;;;;;;;8.93;7.90;;;18.40;99.90;;;;;;5042369;28;20060;-78
2023/09/28 00:30:18;;;;;;;9.13;7.50;;;18.30;99.90;;;;;;5044298;28;20427;-79
2023/09/28 00:32:45;;;;;;;8.80;7.90;;;18.40;99.90;;;;;;5040743;28;20041;-78
2023/09/28 00:35:11;;;;;;;9.15;7.45;;;18.30;99.90;;;;;;5041068;28;20043;-78
2023/09/28 00:37:36;;;;;;;8.00;6.93;;;18.30;99.90;;;;;;5041704;28;20112;-79
2023/09/28 00:42:50;;;;;;;8.55;7.65;;;18.30;99.90;;;;;;5044235;28;20091;-78
2023/09/28 00:45:16;;;;;;;9.68;7.47;;;18.30;99.90;;;;;;5042298;28;20059;-79
2023/09/28 00:47:44;;;;;;;7.78;6.82;;;18.30;99.90;;;;;;5030171;28;20036;-79
2023/09/28 00:50:11;;;;;;;9.15;7.10;;;18.30;99.90;;;;;;5044499;28;20025;-78
2023/09/28 00:52:41;;;;;;;7.20;6.50;;;18.30;99.90;;;;;;5040294;28;20072;-79
2023/09/28 00:55:09;;;;;;;9.77;7.63;;;18.30;99.90;;;;;;5024440;28;20041;-78
2023/09/28 00:57:35;;;;;;;11.40;7.28;;;18.20;99.90;;;;;;5023007;28;20063;-78
2023/09/28 01:00:08;;;;;;;8.73;7.53;;;18.30;99.90;;;;;;5041805;28;20038;-78
2023/09/28 01:02:34;;;;;;;8.15;6.53;;;18.30;99.90;;;;;;5040521;28;20132;-78
2023/09/28 01:05:04;;;;;;;8.07;6.88;;;18.30;99.90;;;;;;5045275;28;20524;-77
2023/09/28 01:07:30;;;;;;;9.25;6.47;;;18.30;99.90;;;;;;5025039;28;20048;-77
2023/09/28 01:09:57;;;;;;;9.02;6.50;;;18.30;99.90;;;;;;5038912;28;20116;-77
2023/09/28 01:12:22;;;;;;;8.25;6.60;;;18.30;99.90;;;;;;5038304;28;20564;-78
2023/09/28 01:14:49;;;;;;;8.73;6.20;;;18.30;99.90;;;;;;5041920;28;20168;-78
2023/09/28 01:17:16;;;;;;;8.48;6.35;;;18.30;99.90;;;;;;5037791;28;20155;-77
2023/09/28 01:19:43;;;;;;;9.05;6.25;;;18.30;99.90;;;;;;5041148;28;20071;-78
2023/09/28 01:22:14;;;;;;;9.65;6.13;;;18.20;99.90;;;;;;5043158;28;20175;-77
2023/09/28 01:24:39;;;;;;;8.85;5.95;;;18.20;99.90;;;;;;5042032;28;20075;-78
2023/09/28 01:27:06;;;;;;;8.07;5.90;;;18.20;99.90;;;;;;5046839;28;20386;-78
2023/09/28 01:29:32;;;;;;;10.57;6.35;;;18.20;99.90;;;;;;5047246;28;20069;-77
2023/09/28 01:31:58;;;;;;;7.15;5.85;;;18.20;99.90;;;;;;5038599;28;20130;-78
2023/09/28 01:34:23;;;;;;;7.90;5.90;;;18.20;99.90;;;;;;5029448;28;20033;-77
2023/09/28 01:36:49;;;;;;;7.78;5.38;;;18.20;99.90;;;;;;5044468;28;20539;-78
2023/09/28 01:39:15;;;;;;;7.40;5.70;;;18.20;99.90;;;;;;5038440;28;20044;-77
2023/09/28 01:41:42;;;;;;;7.53;5.72;;;18.20;99.90;;;;;;5046963;28;20049;-77
2023/09/28 01:44:08;;;;;;;8.23;5.40;;;18.10;99.90;;;;;;5043697;28;20068;-78
2023/09/28 01:46:34;;;;;;;7.68;5.18;;;18.10;99.90;;;;;;5034319;28;20500;-77
2023/09/28 01:48:59;;;;;;;8.73;5.43;;;18.00;99.90;;;;;;5027038;28;20033;-77
2023/09/28 01:51:26;;;;;;;7.07;5.40;;;18.00;99.90;;;;;;5042498;28;20045;-78
2023/09/28 01:53:51;;;;;;;8.35;5.20;;;18.00;99.90;;;;;;5039811;28;20077;-77
2023/09/28 01:56:18;;;;;;;9.32;5.18;;;17.90;99.90;;;;;;5037488;28;20065;-77
2023/09/28 01:58:44;;;;;;;7.10;5.25;;;18.00;99.90;;;;;;5042348;28;20037;-77
2023/09/28 02:01:20;;;;;;;7.05;5.25;;;17.90;99.90;;;;;;5037676;28;20036;-78
2023/09/28 02:03:46;;;;;;;7.65;5.07;;;17.90;99.90;;;;;;5023144;28;20048;-77
2023/09/28 02:06:12;;;;;;;7.43;5.20;;;17.90;99.90;;;;;;5048793;28;20035;-78
2023/09/28 02:08:37;;;;;;;10.68;5.35;;;17.90;99.90;;;;;;5037512;28;20082;-77
2023/09/28 02:11:03;;;;;;;6.35;5.13;;;17.80;99.90;;;;;;5037299;28;20064;-78
2023/09/28 02:13:28;;;;;;;6.32;5.13;;;17.80;99.90;;;;;;5043561;28;20514;-77
2023/09/28 02:15:54;;;;;;;8.18;5.18;;;17.80;99.90;;;;;;5036048;28;20033;-78
2023/09/28 02:18:20;;;;;;;11.07;5.60;;;17.70;99.90;;;;;;5040940;28;20349;-77
2023/09/28 02:20:45;;;;;;;6.10;5.10;;;17.70;99.90;;;;;;5029548;28;20530;-78
2023/09/28 02:23:11;;;;;;;6.85;5.63;;;17.70;99.90;;;;;;5050936;28;20040;-77
2023/09/28 02:25:37;;;;;;;8.45;5.22;;;17.70;99.90;;;;;;5044136;28;20118;-77
2023/09/28 02:28:04;;;;;;;10.63;5.28;;;17.60;99.90;;;;;;5026314;28;20068;-78
2023/09/28 02:30:30;;;;;;;6.65;5.20;;;17.60;99.90;;;;;;5044206;28;20049;-77
2023/09/28 02:32:55;;;;;;;7.15;5.15;;;17.60;99.90;;;;;;5039063;28;20044;-78
2023/09/28 02:35:22;;;;;;;6.53;5.30;;;17.50;99.90;;;;;;5046984;28;20041;-77
2023/09/28 02:37:50;;;;;;;8.13;5.22;;;17.50;99.90;;;;;;5041565;28;20041;-78
2023/09/28 02:40:17;;;;;;;6.10;5.25;;;17.50;99.90;;;;;;5043436;28;20083;-77
2023/09/28 02:42:43;;;;;;;5.93;5.30;;;17.50;99.90;;;;;;5044500;28;20518;-78
2023/09/28 02:45:12;;;;;;;7.10;5.50;;;17.40;99.90;;;;;;5039022;28;20071;-78
2023/09/28 02:47:40;;;;;;;6.43;5.70;;;17.40;99.90;;;;;;5046346;28;20045;-78
2023/09/28 02:50:09;;;;;;;6.63;5.53;;;17.40;99.90;;;;;;5045287;28;20445;-77
2023/09/28 02:52:36;;;;;;;7.38;5.68;;;17.40;99.90;;;;;;5042628;28;20095;-77
2023/09/28 02:55:04;;;;;;;7.85;5.78;;;17.30;99.90;;;;;;5042140;28;20033;-77
2023/09/28 02:57:29;;;;;;;7.03;5.78;;;17.30;99.90;;;;;;5041565;28;20404;-77
2023/09/28 02:59:55;;;;;;;7.53;5.78;;;17.30;99.90;;;;;;5049618;28;20037;-78
2023/09/28 03:02:21;;;;;;;8.82;5.78;;;17.20;99.90;;;;;;5023695;28;20068;-78
2023/09/28 03:04:46;;;;;;;8.07;5.40;;;17.20;99.90;;;;;;5044291;28;20041;-78
2023/09/28 03:07:12;;;;;;;10.10;5.60;;;17.20;99.90;;;;;;5039940;28;20052;-77
2023/09/28 03:09:38;;;;;;;6.93;5.30;;;17.20;99.90;;;;;;5045639;28;20101;-78
2023/09/28 03:12:04;;;;;;;6.95;5.72;;;17.20;99.90;;;;;;5040511;28;20045;-78
2023/09/28 03:14:30;;;;;;;8.75;5.50;;;17.10;99.90;;;;;;5046541;28;20374;-78
2023/09/28 03:16:56;;;;;;;6.82;5.65;;;17.10;99.90;;;;;;5044808;28;20434;-78
2023/09/28 03:19:21;;;;;;;6.50;5.30;;;17.10;99.90;;;;;;5042866;28;20407;-78
2023/09/28 03:21:47;;;;;;;7.38;5.88;;;17.10;99.90;;;;;;5040423;28;20041;-77
2023/09/28 03:24:12;;;;;;;6.93;5.90;;;17.10;99.90;;;;;;5039545;28;20416;-78
2023/09/28 03:26:38;;;;;;;9.55;5.70;;;17.10;99.90;;;;;;5042199;28;20049;-78
2023/09/28 03:29:04;;;;;;;7.47;5.93;;;17.10;99.90;;;;;;5035540;28;20167;-78
2023/09/28 03:31:32;;;;;;;8.82;6.60;;;17.10;99.90;;;;;;5049845;28;20059;-78
2023/09/28 03:33:58;;;;;;;8.57;6.28;;;17.10;99.90;;;;;;5042929;28;20080;-78
2023/09/28 03:36:24;;;;;;;8.80;6.05;;;17.10;99.90;;;;;;5043016;28;20068;-78
2023/09/28 03:38:50;;;;;;;9.10;5.88;;;17.10;99.90;;;;;;5023250;28;20087;-78
2023/09/28 03:41:17;;;;;;;7.30;5.90;;;17.00;99.90;;;;;;5039049;28;20037;-78
2023/09/28 03:43:48;;;;;;;7.45;5.90;;;17.00;99.90;;;;;;5041786;28;20079;-79
2023/09/28 03:46:19;;;;;;;9.82;5.85;;;17.00;99.90;;;;;;5049467;28;20037;-78
2023/09/28 03:48:45;;;;;;;7.53;5.70;;;17.00;99.90;;;;;;5024960;28;20041;-78
2023/09/28 03:51:11;;;;;;;7.30;6.15;;;16.90;99.90;;;;;;5045168;28;20045;-77
2023/09/28 03:53:40;;;;;;;10.90;6.20;;;16.90;99.90;;;;;;5045225;28;20339;-77
2023/09/28 03:56:06;;;;;;;10.25;5.93;;;16.90;99.90;;;;;;5023269;28;20037;-77
2023/09/28 03:58:32;;;;;;;7.60;6.30;;;16.90;99.90;;;;;;5039493;28;20035;-77
2023/09/28 04:00:58;;;;;;;8.15;5.85;;;16.80;99.90;;;;;;5049097;28;20068;-78
2023/09/28 04:03:24;;;;;;;9.43;6.25;;;16.80;99.90;;;;;;5048755;28;20075;-77
2023/09/28 04:05:50;;;;;;;6.85;5.38;;;16.80;99.90;;;;;;5026634;28;20462;-77
2023/09/28 04:08:15;;;;;;;9.70;5.90;;;16.80;99.90;;;;;;5038430;28;20068;-78
2023/09/28 04:10:41;;;;;;;7.93;6.32;;;16.70;99.90;;;;;;5044616;28;20045;-78
2023/09/28 04:13:07;;;;;;;8.57;6.30;;;16.70;99.90;;;;;;5029523;28;20057;-78
2023/09/28 04:15:33;;;;;;;6.72;6.03;;;16.70;99.90;;;;;;5028472;28;20610;-78
2023/09/28 04:17:59;;;;;;;9.98;6.45;;;16.70;99.90;;;;;;5027876;28;20037;-78
2023/09/28 04:20:25;;;;;;;8.30;6.25;;;16.70;99.90;;;;;;5040521;28;20108;-78
2023/09/28 04:22:50;;;;;;;10.90;6.28;;;16.60;99.90;;;;;;5047121;28;20127;-78
2023/09/28 04:25:19;;;;;;;7.85;6.20;;;16.60;99.90;;;;;;5043237;28;20040;-77
2023/09/28 04:27:45;;;;;;;12.45;6.20;;;16.50;99.90;;;;;;5039908;28;20045;-78
2023/09/28 04:30:11;;;;;;;9.20;6.40;;;16.60;99.90;;;;;;5045504;28;20041;-78
2023/09/28 04:32:37;;;;;;;8.40;6.25;;;16.50;99.90;;;;;;5038087;28;20040;-78
2023/09/28 04:35:10;;;;;;;9.27;6.40;;;16.50;99.90;;;;;;5025262;28;20033;-78
2023/09/28 04:37:37;;;;;;;7.77;6.33;;;16.50;99.90;;;;;;5045083;28;20052;-78
2023/09/28 04:40:03;;;;;;;8.05;5.85;;;16.50;99.90;;;;;;5039278;28;20307;-78
2023/09/28 04:42:29;;;;;;;10.60;6.30;;;16.50;99.90;;;;;;5045416;28;20044;-78
2023/09/28 04:44:55;;;;;;;8.18;6.57;;;16.50;99.90;;;;;;5034748;28;20044;-78
2023/09/28 04:47:20;;;;;;;10.05;6.50;;;16.40;99.90;;;;;;5039923;28;20049;-78
2023/09/28 04:49:46;;;;;;;7.78;6.65;;;16.40;99.90;;;;;;5042133;28;20045;-78
2023/09/28 04:52:13;;;;;;;8.52;6.60;;;16.40;99.90;;;;;;5047968;28;20029;-78
2023/09/28 04:54:39;;;;;;;8.68;6.47;;;16.40;99.90;;;;;;5043562;28;20045;-78
2023/09/28 04:57:05;;;;;;;10.13;6.50;;;16.40;99.90;;;;;;5042190;28;20115;-78
2023/09/28 04:59:30;;;;;;;7.97;6.32;;;16.40;99.90;;;;;;5036868;28;20140;-77
2023/09/28 05:01:57;;;;;;;9.82;7.00;;;16.30;99.90;;;;;;5046566;28;20041;-78
2023/09/28 05:04:23;;;;;;;12.00;7.40;;;16.30;99.90;;;;;;5044139;28;20045;-78
2023/09/28 05:06:48;;;;;;;11.23;6.20;;;16.30;99.90;;;;;;5048102;28;20040;-78
2023/09/28 05:09:15;;;;;;;11.15;6.13;;;16.30;99.90;;;;;;5050292;28;20041;-78
2023/09/28 05:11:40;;;;;;;7.95;5.90;;;16.30;99.90;;;;;;5049956;28;20084;-77
2023/09/28 05:14:06;;;;;;;10.25;5.55;;;16.30;99.90;;;;;;5050850;28;20079;-78
2023/09/28 05:16:31;;;;;;;8.50;5.40;;;16.30;99.90;;;;;;5051799;28;20033;-78
2023/09/28 05:18:57;;;;;;;12.90;5.82;;;16.30;99.90;;;;;;5052646;28;20033;-78
2023/09/28 05:21:23;;;;;;;8.60;5.30;;;16.40;99.90;;;;;;5048894;28;20036;-77
2023/09/28 05:23:50;;;;;;;12.32;5.95;;;16.30;99.90;;;;;;5051136;28;20403;-78
2023/09/28 05:26:16;;;;;;;7.20;5.28;;;16.30;99.90;;;;;;5050100;28;20044;-78
2023/09/28 05:28:42;;;;;;;10.48;5.30;;;16.30;99.90;;;;;;5046588;28;20114;-78
2023/09/28 05:31:07;;;;;;;7.78;5.25;;;16.20;99.90;;;;;;5030425;28;20124;-78
2023/09/28 05:33:33;;;;;;;9.00;5.50;;;16.20;99.90;;;;;;5047278;28;20056;-78
2023/09/28 05:35:58;;;;;;;9.60;5.88;;;16.20;99.90;;;;;;5049151;28;20029;-77
2023/09/28 05:38:24;;;;;;;9.98;6.65;;;16.10;99.90;;;;;;5050586;28;20040;-78
2023/09/28 05:40:49;;;;;;;8.75;6.38;;;16.10;99.90;;;;;;5048048;28;20079;-78
2023/09/28 05:43:15;;;;;;;8.10;6.55;;;16.10;99.90;;;;;;5038809;28;20052;-78
2023/09/28 05:45:41;;;;;;;8.77;6.50;;;16.00;99.90;;;;;;5030337;28;20048;-78
2023/09/28 05:48:06;;;;;;;11.95;6.75;;;16.00;99.90;;;;;;5049110;28;20450;-77
2023/09/28 05:50:32;;;;;;;9.10;6.88;;;16.00;99.90;;;;;;5048969;28;20090;-77
2023/09/28 05:52:57;;;;;;;9.98;6.65;;;15.90;99.90;;;;;;5041710;28;20536;-78
2023/09/28 05:55:25;;;;;;;10.90;6.97;;;15.90;99.90;;;;;;5043652;28;20036;-77
2023/09/28 05:57:52;;;;;;;9.52;7.28;;;16.00;99.90;;;;;;5049931;28;20048;-78
2023/09/28 06:00:18;;;;;;;12.77;7.72;;;15.90;99.90;;;;;;5029932;28;20446;-78
2023/09/28 06:02:44;;;;;;;11.20;7.22;;;15.90;99.90;;;;;;5036802;28;20045;-78
2023/09/28 06:05:10;;;;;;;11.88;7.10;;;15.90;99.90;;;;;;5041774;28;20048;-77
2023/09/28 06:07:36;;;;;;;12.15;7.25;;;15.90;99.90;;;;;;5045350;28;20044;-78
2023/09/28 06:10:02;;;;;;;11.50;7.30;;;15.90;99.90;;;;;;5044357;28;20044;-77
2023/09/28 06:12:28;;;;;;;10.90;6.80;;;15.90;99.90;;;;;;5047361;28;20033;-77
2023/09/28 06:14:53;;;;;;;13.57;7.18;;;15.90;99.90;;;;;;5037970;28;20025;-77
2023/09/28 06:17:19;;;;;;;13.63;6.53;;;15.90;99.90;;;;;;5046859;28;20698;-77
2023/09/28 06:19:44;;;;;;;10.10;6.30;;;15.90;99.90;;;;;;5040522;28;20049;-78
2023/09/28 06:22:10;;;;;;;10.77;6.00;;;16.00;99.90;;;;;;5047786;28;20052;-78
2023/09/28 06:24:39;;;;;;;9.93;5.78;;;16.00;99.90;;;;;;5048286;28;20041;-78
2023/09/28 06:27:05;;;;;;;19.77;5.88;;;16.00;99.90;;;;;;5041593;28;20037;-78
2023/09/28 06:29:32;;;;;;;11.20;5.70;;;16.00;99.90;;;;;;5042692;28;20037;-78
2023/09/28 06:31:58;;;;;;;12.00;5.40;;;16.00;99.90;;;;;;5043216;28;20443;-78
2023/09/28 06:34:23;;;;;;;15.43;5.38;;;16.10;99.90;;;;;;5047626;28;20105;-78
2023/09/28 06:36:49;;;;;;;13.07;5.50;;;16.10;99.90;;;;;;5043518;28;20587;-79
2023/09/28 06:39:14;;;;;;;15.15;5.18;;;16.10;99.90;;;;;;5043804;28;20041;-78
2023/09/28 06:41:40;;;;;;;13.25;5.00;;;16.10;99.90;;;;;;5037410;28;20041;-78
2023/09/28 06:44:06;;;;;;;16.55;5.47;;;16.10;99.90;;;;;;5049830;28;20474;-78
2023/09/28 06:46:31;;;;;;;15.95;5.10;;;16.10;99.90;;;;;;5044360;28;20120;-77
2023/09/28 06:48:58;;;;;;;11.82;5.07;;;16.10;99.90;;;;;;5040122;28;20527;-77
2023/09/28 06:51:25;;;;;;;14.93;4.47;;;16.20;99.90;;;;;;5037265;28;20560;-78
2023/09/28 06:53:51;;;;;;;11.10;4.57;;;16.30;99.90;;;;;;5034411;28;20037;-78
2023/09/28 06:56:16;;;;;;;11.32;4.20;;;16.30;99.90;;;;;;5043210;28;20040;-77
2023/09/28 06:58:42;;;;;;;16.48;4.88;;;16.30;99.90;;;;;;5046422;28;20039;-78
2023/09/28 07:01:08;;;;;;;15.90;4.18;;;16.40;99.90;;;;;;5044423;28;20448;-78
2023/09/28 07:03:33;;;;;;;16.38;4.57;;;16.40;99.90;;;;;;5040291;28;20137;-78
2023/09/28 07:06:00;;;;;;;16.10;4.63;;;16.50;99.90;;;;;;5041637;28;20041;-77
2023/09/28 07:08:26;;;;;;;19.88;4.60;;;16.60;99.90;;;;;;5042879;28;20119;-77
2023/09/28 07:10:52;;;;;;;17.25;4.72;;;16.70;99.90;;;;;;5048315;28;20153;-77
2023/09/28 07:13:17;;;;;;;16.02;4.20;;;16.70;99.90;;;;;;5021902;28;20041;-77
2023/09/28 07:15:43;;;;;;;18.65;5.13;;;16.80;99.90;;;;;;5039849;28;20041;-78
2023/09/28 07:18:08;;;;;;;14.73;4.13;;;16.90;99.90;;;;;;5041166;28;20491;-77
2023/09/28 07:20:36;;;;;;;18.67;4.00;;;17.00;99.90;;;;;;5038280;28;20417;-77
2023/09/28 07:23:02;;;;;;;17.02;4.45;;;17.10;99.90;;;;;;5046737;28;20102;-78
2023/09/28 07:25:28;;;;;;;20.27;4.45;;;17.20;99.90;;;;;;5051542;28;20025;-77
2023/09/28 07:27:54;;;;;;;16.90;4.57;;;17.30;99.90;;;;;;5051974;28;20488;-77
2023/09/28 07:30:20;;;;;;;15.20;4.38;;;17.40;99.90;;;;;;5033507;28;20119;-77
2023/09/28 07:32:47;;;;;;;14.85;4.22;;;17.50;99.90;;;;;;5046181;28;20082;-78
2023/09/28 07:35:13;;;;;;;15.57;4.78;;;17.60;99.90;;;;;;5038920;28;20037;-78
2023/09/28 07:37:40;;;;;;;11.27;4.20;;;17.70;99.90;;;;;;5051283;28;20064;-77
2023/09/28 07:40:09;;;;;;;16.27;4.20;;;17.90;99.90;;;;;;5045558;28;20052;-77
2023/09/28 07:42:34;;;;;;;14.10;3.97;;;18.00;99.90;;;;;;5051891;28;20116;-77
2023/09/28 07:45:00;;;;;;;19.98;4.03;;;18.20;99.90;;;;;;5051458;28;20139;-78
2023/09/28 07:47:25;;;;;;;18.33;4.15;;;18.40;99.90;;;;;;5051630;28;20504;-78
2023/09/28 07:49:52;;;;;;;20.60;4.10;;;18.60;99.90;;;;;;5051314;28;20071;-77
2023/09/28 07:52:18;;;;;;;16.17;4.15;;;18.70;99.90;;;;;;5050643;28;20052;-76
2023/09/28 07:54:43;;;;;;;19.70;3.95;;;18.80;99.90;;;;;;5043746;28;20033;-77
2023/09/28 07:57:09;;;;;;;19.88;4.03;;;19.00;99.90;;;;;;5050804;28;20032;-77
2023/09/28 07:59:35;;;;;;;15.82;4.40;;;19.10;99.90;;;;;;5050157;28;20055;-77
2023/09/28 08:02:02;;;;;;;18.02;3.92;;;19.20;99.90;;;;;;5050819;28;20048;-78
2023/09/28 08:04:28;;;;;;;18.38;4.68;;;19.30;99.90;;;;;;5051856;28;20488;-77
2023/09/28 08:06:54;;;;;;;15.88;3.13;;;19.40;99.90;;;;;;5046101;28;20041;-77
2023/09/28 08:09:20;;;;;;;18.20;3.65;;;19.40;99.90;;;;;;5049230;28;20045;-77
2023/09/28 08:11:48;;;;;;;16.83;3.90;;;19.40;99.90;;;;;;5049329;28;20060;-77
2023/09/28 08:14:15;;;;;;;17.55;3.70;;;19.50;99.90;;;;;;5046335;28;20037;-77
2023/09/28 08:16:45;;;;;;;21.02;4.53;;;19.40;99.90;;;;;;5031523;28;20067;-77
2023/09/28 08:19:11;;;;;;;17.23;3.50;;;19.30;99.90;;;;;;5046834;28;20163;-77
2023/09/28 08:21:38;;;;;;;17.88;3.80;;;19.20;99.90;;;;;;5046488;28;20115;-77
2023/09/28 08:24:05;;;;;;;19.98;4.30;;;19.10;99.90;;;;;;5045103;28;20091;-77
2023/09/28 08:26:31;;;;;;;17.95;4.28;;;19.00;99.90;;;;;;5043314;28;20037;-78
2023/09/28 08:28:58;;;;;;;25.90;5.18;;;19.00;99.90;;;;;;5047455;28;20033;-78
2023/09/28 08:31:24;;;;;;;20.35;4.72;;;18.90;99.90;;;;;;5040043;28;20489;-77
2023/09/28 08:33:49;;;;;;;26.60;5.68;;;19.00;99.90;;;;;;5045309;28;20065;-79
2023/09/28 08:36:16;;;;;;;22.33;5.40;;;19.10;99.90;;;;;;5047534;28;20116;-78
2023/09/28 08:38:41;;;;;;;21.27;5.38;;;19.10;99.90;;;;;;5049927;28;20045;-78
2023/09/28 08:41:09;;;;;;;25.45;6.18;;;19.10;99.90;;;;;;5039277;28;20040;-78
2023/09/28 08:43:42;;;;;;;24.33;5.55;;;19.10;99.90;;;;;;5045723;28;20491;-78
2023/09/28 08:46:11;;;;;;;22.87;5.77;;;19.10;99.90;;;;;;5051056;28;20045;-78
2023/09/28 08:48:42;;;;;;;21.60;5.30;;;19.20;99.90;;;;;;5033212;28;20069;-78
2023/09/28 08:51:10;;;;;;;22.45;5.18;;;19.30;99.90;;;;;;5033678;28;20496;-77
2023/09/28 08:53:37;;;;;;;23.65;4.68;;;19.30;99.90;;;;;;5050988;28;20048;-77
2023/09/28 08:56:04;;;;;;;18.63;3.97;;;19.40;99.90;;;;;;5044304;28;20113;-78
2023/09/28 08:58:34;;;;;;;22.15;4.57;;;19.30;99.90;;;;;;5027035;28;20068;-77
2023/09/28 09:01:00;;;;;;;19.77;4.38;;;19.30;99.90;;;;;;5042599;28;20044;-78
2023/09/28 09:03:27;;;;;;;22.98;4.78;;;19.40;99.90;;;;;;5041871;28;20037;-78
2023/09/28 09:05:56;;;;;;;21.40;4.53;;;19.50;99.90;;;;;;5041926;28;20457;-78
2023/09/28 09:08:24;;;;;;;22.55;4.20;;;19.50;99.90;;;;;;5050557;28;20376;-78
2023/09/28 09:10:51;;;;;;;16.15;4.05;;;19.60;99.90;;;;;;5050005;28;20066;-78
2023/09/28 09:13:18;;;;;;;26.23;4.47;;;19.80;99.90;;;;;;5045196;28;20037;-78
2023/09/28 09:15:44;;;;;;;18.25;3.90;;;19.70;99.90;;;;;;5043627;28;21665;-77
2023/09/28 09:18:19;;;;;;;20.05;4.60;;;19.70;99.90;;;;;;5042320;28;20052;-77
2023/09/28 09:20:46;;;;;;;19.15;4.47;;;19.60;99.90;;;;;;5047946;28;20492;-77
2023/09/28 09:23:16;;;;;;;20.15;4.20;;;19.60;99.90;;;;;;5045674;28;20080;-78
2023/09/28 09:25:53;;;;;;;18.73;4.68;;;19.60;99.90;;;;;;5039480;28;20048;-78
2023/09/28 09:28:32;;;;;;;18.27;5.45;;;19.60;99.90;;;;;;5040811;28;20061;-78
2023/09/28 09:30:58;;;;;;;24.13;6.55;;;19.50;99.90;;;;;;5043934;28;20041;-79
2023/09/28 09:33:28;;;;;;;26.48;6.85;;;19.50;99.90;;;;;;5055182;28;20037;-78
2023/09/28 09:35:54;;;;;;;30.83;7.25;;;19.50;99.90;;;;;;5048598;28;20049;-77
2023/09/28 09:38:29;;;;;;;32.13;6.65;;;19.40;99.90;;;;;;5030091;28;20034;-77
2023/09/28 09:41:02;;;;;;;23.45;5.40;;;19.30;99.90;;;;;;5046142;28;20076;-78
2023/09/28 09:43:35;;;;;;;25.95;6.50;;;19.20;99.90;;;;;;5054834;28;20040;-78
2023/09/28 09:46:04;;;;;;;;;;;19.20;99.90;;;;;;5027190;28;20045;-78
2023/09/28 09:48:38;;;;;;;29.98;6.25;;;19.10;99.90;;;;;;5053999;28;19917;-78
2023/09/28 09:51:03;;;;;;;;;;;19.10;99.90;;;;;;5054313;28;20033;-78
2023/09/28 09:53:31;;;;;;;25.92;5.57;;;19.10;99.90;;;;;;5034837;28;20303;-78
2023/09/28 09:55:57;;;;;;;26.58;4.97;;;19.10;99.90;;;;;;5034988;28;20040;-78
2023/09/28 09:58:27;;;;;;;26.42;5.57;;;19.10;99.90;;;;;;5043352;28;20052;-78
2023/09/28 10:00:54;;;;;;;23.20;4.72;;;19.10;99.90;;;;;;5026660;28;20401;-78
2023/09/28 10:03:21;;;;;;;21.27;4.50;;;19.20;99.90;;;;;;5045432;28;20044;-78
2023/09/28 10:05:47;;;;;;;21.38;4.57;;;19.20;99.90;;;;;;5053064;28;20032;-78
2023/09/28 10:08:15;;;;;;;21.80;4.80;;;19.20;99.90;;;;;;5053357;28;20044;-78
2023/09/28 10:10:44;;;;;;;17.75;4.85;;;19.30;99.90;;;;;;5054898;28;20045;-78
2023/09/28 10:13:10;;;;;;;19.77;3.83;;;19.20;99.90;;;;;;5055262;28;20037;-78
2023/09/28 10:15:36;;;;;;;20.48;5.07;;;19.30;99.90;;;;;;5053820;28;20082;-78
2023/09/28 10:18:03;;;;;;;20.58;4.22;;;19.30;99.90;;;;;;5054590;28;20037;-78
2023/09/28 10:20:29;;;;;;;16.15;4.20;;;19.40;99.90;;;;;;5053871;28;20041;-78
2023/09/28 10:22:55;;;;;;;20.00;3.75;;;19.40;99.90;;;;;;5054208;28;20098;-78
2023/09/28 10:25:23;;;;;;;16.35;3.47;;;19.30;99.90;;;;;;5053336;28;20071;-78
2023/09/28 10:27:48;;;;;;;28.15;4.85;;;19.40;99.90;;;;;;5052852;28;20052;-77
2023/09/28 10:30:22;;;;;;;18.13;3.55;;;19.30;99.90;;;;;;5045767;28;20037;-78
2023/09/28 10:32:50;;;;;;;19.60;3.60;;;19.40;99.90;;;;;;5038682;28;20046;-78
2023/09/28 10:35:19;;;;;;;16.55;4.10;;;19.40;99.90;;;;;;5049996;28;20110;-77
2023/09/28 10:38:17;;;;;;;18.60;3.53;;;19.40;99.90;;;;;;5053374;28;20037;-78
2023/09/28 10:40:47;;;;;;;20.67;3.55;;;19.40;99.90;;;;;;5041947;28;20041;-78
2023/09/28 10:43:29;;;;;;;15.48;3.90;;;19.40;99.90;;;;;;5042065;28;20067;-77
2023/09/28 10:45:55;;;;;;;23.58;4.28;;;19.40;99.90;;;;;;5045699;28;20048;-77
2023/09/28 10:48:22;;;;;;;21.40;4.28;;;19.40;99.90;;;;;;5051019;28;20048;-78
2023/09/28 10:50:47;;;;;;;19.33;4.20;;;19.50;99.90;;;;;;5054498;28;20107;-79
2023/09/28 10:53:13;;;;;;;22.63;4.40;;;19.50;99.90;;;;;;5051194;28;20028;-78
2023/09/28 10:55:41;;;;;;;19.38;4.82;;;19.60;99.90;;;;;;5053125;28;20079;-78
2023/09/28 10:58:07;;;;;;;16.95;3.92;;;19.60;99.90;;;;;;5052684;28;20076;-78
2023/09/28 11:00:34;;;;;;;16.70;4.13;;;19.50;99.90;;;;;;5030297;28;20557;-79
2023/09/28 11:03:00;;;;;;;15.43;3.50;;;19.50;99.90;;;;;;5047567;28;20078;-77
2023/09/28 11:05:26;;;;;;;23.85;4.13;;;19.50;99.90;;;;;;5025961;28;20107;-78
2023/09/28 11:07:52;;;;;;;15.93;3.63;;;19.60;99.90;;;;;;5041118;28;20033;-79
2023/09/28 11:10:18;;;;;;;19.08;4.20;;;19.50;99.90;;;;;;5039947;28;20052;-77
2023/09/28 11:12:44;;;;;;;13.75;4.15;;;19.50;99.90;;;;;;5043129;28;20037;-77
2023/09/28 11:15:14;;;;;;;17.20;4.30;;;19.50;99.90;;;;;;5044049;28;20025;-77
2023/09/28 11:17:40;;;;;;;23.95;3.92;;;19.50;99.90;;;;;;5038837;28;20452;-78
2023/09/28 11:20:07;;;;;;;24.08;5.10;;;19.60;99.90;;;;;;5038240;28;20453;-78
2023/09/28 11:22:33;;;;;;;21.80;4.47;;;19.60;99.90;;;;;;5043116;28;20045;-78
2023/09/28 11:24:59;;;;;;;20.83;4.07;;;19.60;99.90;;;;;;5030402;28;20041;-78
2023/09/28 11:27:25;;;;;;;19.45;4.65;;;19.60;99.90;;;;;;5042958;28;20643;-77
2023/09/28 11:29:57;;;;;;;16.60;4.20;;;19.60;99.90;;;;;;5048638;28;20538;-77
2023/09/28 11:32:23;;;;;;;16.75;3.67;;;19.60;99.90;;;;;;5051682;28;20037;-77
2023/09/28 11:34:51;;;;;;;20.13;3.80;;;19.50;99.90;;;;;;5051265;28;20511;-78
2023/09/28 11:37:16;;;;;;;20.02;4.85;;;19.50;99.90;;;;;;5051370;28;20043;-78
2023/09/28 11:39:42;;;;;;;17.73;3.95;;;19.60;99.90;;;;;;5052142;28;20045;-77
2023/09/28 11:42:09;;;;;;;21.63;4.80;;;19.60;99.90;;;;;;5031742;28;20041;-77
2023/09/28 11:44:35;;;;;;;18.17;3.80;;;19.60;99.90;;;;;;5039358;28;20067;-77
2023/09/28 11:47:01;;;;;;;22.48;4.50;;;19.70;99.90;;;;;;5039554;28;20465;-77
2023/09/28 11:49:27;;;;;;;18.20;4.50;;;19.80;99.90;;;;;;5045189;28;20486;-78
2023/09/28 11:51:53;;;;;;;16.85;3.97;;;19.80;99.90;;;;;;5029218;28;20117;-78
2023/09/28 11:54:20;;;;;;;16.98;3.50;;;19.90;99.90;;;;;;5034113;28;20043;-78
2023/09/28 11:56:49;;;;;;;12.82;3.35;;;19.90;99.90;;;;;;5048200;28;20450;-77
2023/09/28 11:59:16;;;;;;;24.25;4.68;;;19.90;99.90;;;;;;5043202;28;20029;-77
2023/09/28 12:01:46;;;;;;;18.10;4.22;;;20.00;99.90;;;;;;5040993;28;20077;-77
2023/09/28 12:04:12;;;;;;;16.83;3.70;;;20.20;99.90;;;;;;5039191;28;20094;-78
2023/09/28 12:06:38;;;;;;;16.23;4.07;;;20.30;99.90;;;;;;5042155;28;20439;-78
2023/09/28 12:09:08;;;;;;;18.55;3.63;;;20.40;99.90;;;;;;5021078;28;20080;-78
2023/09/28 12:11:35;;;;;;;19.55;3.80;;;20.40;99.90;;;;;;5032549;28;20033;-78
2023/09/28 12:14:00;;;;;;;19.17;4.18;;;20.30;99.90;;;;;;5040617;28;20140;-78
2023/09/28 12:16:26;;;;;;;18.55;3.88;;;20.30;99.90;;;;;;5043409;28;20111;-79
2023/09/28 12:18:52;;;;;;;18.13;3.80;;;20.20;99.90;;;;;;5039153;28;20087;-77
2023/09/28 12:21:17;;;;;;;19.83;3.80;;;20.30;99.90;;;;;;5044027;28;20138;-78
2023/09/28 12:23:43;;;;;;;18.00;4.00;;;20.30;99.90;;;;;;5046606;28;20040;-79
2023/09/28 12:26:10;;;;;;;18.08;3.95;;;20.30;99.90;;;;;;5036673;28;20405;-77
2023/09/28 12:28:37;;;;;;;17.08;3.35;;;20.40;99.90;;;;;;5035478;28;20100;-78
2023/09/28 12:31:04;;;;;;;22.33;4.03;;;20.40;99.90;;;;;;5041186;28;20045;-78
2023/09/28 12:33:30;;;;;;;22.52;4.32;;;20.40;99.90;;;;;;5023071;28;20033;-77
2023/09/28 12:35:57;;;;;;;22.23;4.35;;;20.40;99.90;;;;;;5050179;28;20033;-77
2023/09/28 12:38:23;;;;;;;16.33;3.55;;;20.40;99.90;;;;;;5049865;28;20069;-78
2023/09/28 12:40:49;;;;;;;17.90;3.70;;;20.50;99.90;;;;;;5023777;28;20073;-77